Time;durP1;ratioP1;P1;durP2;ratioP2;P2;SDS_P1;SDS_P2;PMS_P1;PMS_P2;Temp;Humidity;BMP_temperature;BMP_pressure;BME280_temperature;BME280_humidity;BME280_pressure;Samples;Min_cycle;Max_cycle;Signal;HPM_P1;HPM_P2
2021/09/23 00:02:04;;;;;;;;;;;;;;;;;;5072394;28;19928;-86
2021/09/23 00:04:35;;;;;;;;;;;;;;;;;;5067042;28;19924;-87
2021/09/23 00:07:03;;;;;;;;;;;;;;;;;;5074068;28;19931;-86
2021/09/23 00:09:32;;;;;;;;;;;;;;;;;;5092335;28;19924;-88
2021/09/23 00:12:00;;;;;;;;;;;;;;;;;;5096053;28;20364;-88
2021/09/23 00:14:34;;;;;;;;;;;;;;;;;;5078596;28;19924;-84
2021/09/23 00:17:14;;;;;;;;;;;;;;;;;;5082329;28;19924;-92
2021/09/23 00:20:17;;;;;;;;;;;;;;;;;;5087996;28;19924;-86
2021/09/23 00:23:02;;;;;;;;;;;;;;;;;;5088529;28;19928;-86
2021/09/23 00:25:31;;;;;;;;;;;;;;;;;;5078823;28;19936;-83
2021/09/23 00:28:02;;;;;;;;;;;;;;;;;;5092963;28;19924;-85
2021/09/23 00:30:30;;;;;;;;;;;;;;;;;;5075134;28;19928;-86
2021/09/23 00:33:10;;;;;;;;;;;;;;;;;;5071905;28;19924;-86
2021/09/23 00:35:40;;;;;;;;;;;;;;;;;;5069288;28;20402;-87
2021/09/23 00:38:08;;;;;;;;;;;;;;;;;;5069651;28;19924;-86
2021/09/23 00:40:36;;;;;;;;;;;;;;;;;;5072498;28;20310;-84
2021/09/23 00:43:05;;;;;;;;;;;;;;;;;;5072477;28;19924;-87
2021/09/23 00:45:34;;;;;;;;;;;;;;;;;;5076526;28;20305;-86
2021/09/23 00:48:03;;;;;;;;;;;;;;;;;;5071925;28;19924;-86
2021/09/23 00:50:33;;;;;;;;;;;;;;;;;;5075986;28;19924;-88
2021/09/23 00:53:09;;;;;;;;;;;;;;;;;;5088198;28;19931;-87
2021/09/23 00:55:38;;;;;;;;;;;;;;;;;;5069352;28;19935;-86
2021/09/23 00:58:07;;;;;;;;;;;;;;;;;;5071800;28;19931;-86
2021/09/23 01:00:41;;;;;;;;;;;;;;;;;;5074140;28;19924;-87
2021/09/23 01:03:17;;;;;;;;;;;;;;;;;;5077941;28;19932;-88
2021/09/23 01:05:48;;;;;;;;;;;;;;;;;;5082592;28;20341;-90
2021/09/23 01:08:18;;;;;;;;;;;;;;;;;;5077340;28;19931;-85
2021/09/23 01:10:47;;;;;;;;;;;;;;;;;;5078215;28;19924;-88
2021/09/23 01:13:15;;;;;;;;;;;;;;;;;;5092528;28;19924;-89
2021/09/23 01:16:04;;;;;;;;;;;;;;;;;;5086730;28;19932;-87
2021/09/23 01:18:51;;;;;;;;;;;;;;;;;;5085865;28;19928;-87
2021/09/23 01:21:24;;;;;;;;;;;;;;;;;;5088135;28;19924;-86
2021/09/23 01:23:52;;;;;;;;;;;;;;;;;;5081675;28;19931;-84
2021/09/23 01:26:26;;;;;;;;;;;;;;;;;;5079913;28;19928;-87
2021/09/23 01:28:56;;;;;;;;;;;;;;;;;;5081878;28;19938;-88
2021/09/23 01:31:25;;;;;;;;;;;;;;;;;;5076878;28;19931;-85
2021/09/23 01:33:54;;;;;;;;;;;;;;;;;;5070845;28;19924;-87
2021/09/23 01:36:24;;;;;;;;;;;;;;;;;;5074710;28;20404;-88
2021/09/23 01:38:53;;;;;;;;;;;;;;;;;;5079169;28;19924;-87
2021/09/23 01:41:21;;;;;;;;;;;;;;;;;;5085439;28;19933;-87
2021/09/23 01:43:53;;;;;;;;;;;;;;;;;;5074819;28;19924;-84
2021/09/23 01:46:22;;;;;;;;;;;;;;;;;;5065469;28;20290;-84
2021/09/23 01:49:13;;;;;;;;;;;;;;;;;;5088299;28;19931;-84
2021/09/23 01:51:43;;;;;;;;;;;;;;;;;;5072658;28;19924;-88
2021/09/23 01:54:11;;;;;;;;;;;;;;;;;;5086370;28;19935;-87
2021/09/23 01:56:39;;;;;;;;;;;;;;;;;;5087584;28;19932;-86
2021/09/23 01:59:08;;;;;;;;;;;;;;;;;;5091834;28;19940;-88
2021/09/23 02:01:37;;;;;;;;;;;;;;;;;;5087011;28;20425;-88
2021/09/23 02:04:07;;;;;;;;;;;;;;;;;;5068318;28;20414;-86
2021/09/23 02:06:39;;;;;;;;;;;;;;;;;;5068035;28;19932;-88
2021/09/23 02:09:09;;;;;;;;;;;;;;;;;;5074400;28;19931;-87
2021/09/23 02:11:38;;;;;;;;;;;;;;;;;;5071829;28;19924;-86
2021/09/23 02:14:07;;;;;;;;;;;;;;;;;;5075444;28;19947;-87
2021/09/23 02:16:35;;;;;;;;;;;;;;;;;;5089233;28;19924;-90
2021/09/23 02:19:25;;;;;;;;;;;;;;;;;;5066827;28;19932;-86
2021/09/23 02:21:54;;;;;;;;;;;;;;;;;;5070847;28;19928;-90
2021/09/23 02:24:23;;;;;;;;;;;;;;;;;;5099294;28;20386;-87
2021/09/23 02:26:54;;;;;;;;;;;;;;;;;;5074938;28;19924;-88
2021/09/23 02:29:23;;;;;;;;;;;;;;;;;;5071857;28;19924;-88
2021/09/23 02:31:52;;;;;;;;;;;;;;;;;;5078347;28;19935;-90
2021/09/23 02:34:20;;;;;;;;;;;;;;;;;;5077510;28;19924;-89
2021/09/23 02:36:48;;;;;;;;;;;;;;;;;;5076062;28;19928;-87
2021/09/23 02:39:17;;;;;;;;;;;;;;;;;;5089726;28;19924;-91
2021/09/23 02:41:47;;;;;;;;;;;;;;;;;;5095499;28;20427;-88
2021/09/23 02:44:15;;;;;;;;;;;;;;;;;;5075294;28;20438;-84
2021/09/23 02:46:43;;;;;;;;;;;;;;;;;;5079963;28;20412;-89
2021/09/23 02:49:12;;;;;;;;;;;;;;;;;;5076678;28;19928;-85
2021/09/23 02:51:40;;;;;;;;;;;;;;;;;;5077675;28;19998;-84
2021/09/23 02:54:08;;;;;;;;;;;;;;;;;;5071488;28;19928;-84
2021/09/23 02:56:37;;;;;;;;;;;;;;;;;;5076655;28;19928;-89
2021/09/23 02:59:06;;;;;;;;;;;;;;;;;;5076729;28;20003;-88
2021/09/23 03:01:35;;;;;;;;;;;;;;;;;;5073389;28;20417;-87
2021/09/23 03:04:04;;;;;;;;;;;;;;;;;;5076430;28;19925;-86
2021/09/23 03:06:33;;;;;;;;;;;;;;;;;;5072022;28;20432;-88
2021/09/23 03:09:01;;;;;;;;;;;;;;;;;;5074194;28;19924;-88
2021/09/23 03:11:30;;;;;;;;;;;;;;;;;;5072266;28;19931;-86
2021/09/23 03:13:59;;;;;;;;;;;;;;;;;;5070428;28;19928;-87
2021/09/23 03:16:28;;;;;;;;;;;;;;;;;;5075791;28;19931;-89
2021/09/23 03:18:57;;;;;;;;;;;;;;;;;;5076617;28;19924;-87
2021/09/23 03:21:25;;;;;;;;;;;;;;;;;;5076671;28;19924;-89
2021/09/23 03:23:54;;;;;;;;;;;;;;;;;;5085773;28;19932;-88
2021/09/23 03:26:22;;;;;;;;;;;;;;;;;;5085966;28;19928;-88
2021/09/23 03:28:50;;;;;;;;;;;;;;;;;;5076508;28;19928;-87
2021/09/23 03:31:19;;;;;;;;;;;;;;;;;;5089280;28;19928;-86
2021/09/23 03:33:48;;;;;;;;;;;;;;;;;;5076785;28;19932;-88
2021/09/23 03:36:17;;;;;;;;;;;;;;;;;;5088311;28;19940;-87
2021/09/23 03:38:45;;;;;;;;;;;;;;;;;;5074317;28;19931;-87
2021/09/23 03:41:14;;;;;;;;;;;;;;;;;;5078170;28;19928;-91
2021/09/23 03:43:43;;;;;;;;;;;;;;;;;;5080803;28;19924;-86
2021/09/23 03:46:11;;;;;;;;;;;;;;;;;;5072997;28;19924;-87
2021/09/23 03:48:40;;;;;;;;;;;;;;;;;;5069942;28;19931;-84
2021/09/23 03:51:09;;;;;;;;;;;;;;;;;;5075666;28;19924;-84
2021/09/23 03:53:38;;;;;;;;;;;;;;;;;;5082961;28;19931;-87
2021/09/23 03:56:07;;;;;;;;;;;;;;;;;;5076520;28;19924;-89
2021/09/23 03:58:36;;;;;;;;;;;;;;;;;;5076176;28;19951;-88
2021/09/23 04:01:04;;;;;;;;;;;;;;;;;;5071091;28;19925;-88
2021/09/23 04:03:33;;;;;;;;;;;;;;;;;;5093955;28;19932;-88
2021/09/23 04:06:03;;;;;;;;;;;;;;;;;;5070129;28;19931;-90
2021/09/23 04:08:32;;;;;;;;;;;;;;;;;;5070093;28;19924;-89
2021/09/23 04:11:01;;;;;;;;;;;;;;;;;;5077102;28;19924;-88
2021/09/23 04:13:30;;;;;;;;;;;;;;;;;;5073890;28;19931;-88
2021/09/23 04:15:58;;;;;;;;;;;;;;;;;;5068309;28;19928;-89
2021/09/23 04:18:26;;;;;;;;;;;;;;;;;;5077580;28;19924;-88
2021/09/23 04:20:55;;;;;;;;;;;;;;;;;;5069853;28;19928;-87
2021/09/23 04:23:23;;;;;;;;;;;;;;;;;;5092872;28;19935;-90
2021/09/23 04:25:53;;;;;;;;;;;;;;;;;;5094983;28;19931;-88
2021/09/23 04:28:21;;;;;;;;;;;;;;;;;;5101326;28;19924;-89
2021/09/23 04:30:53;;;;;;;;;;;;;;;;;;5089204;28;19931;-88
2021/09/23 04:33:21;;;;;;;;;;;;;;;;;;5079924;28;19924;-88
2021/09/23 04:35:50;;;;;;;;;;;;;;;;;;5070852;28;20408;-86
2021/09/23 04:38:20;;;;;;;;;;;;;;;;;;5073351;28;19925;-90
2021/09/23 04:40:49;;;;;;;;;;;;;;;;;;5071446;28;20297;-89
2021/09/23 04:43:19;;;;;;;;;;;;;;;;;;5073498;28;19924;-88
2021/09/23 04:45:48;;;;;;;;;;;;;;;;;;5080909;28;19932;-87
2021/09/23 04:48:16;;;;;;;;;;;;;;;;;;5071750;28;20418;-88
2021/09/23 04:50:46;;;;;;;;;;;;;;;;;;5069716;28;20317;-88
2021/09/23 04:53:15;;;;;;;;;;;;;;;;;;5088037;28;19925;-90
2021/09/23 04:55:44;;;;;;;;;;;;;;;;;;5085793;28;20425;-89
2021/09/23 04:58:12;;;;;;;;;;;;;;;;;;5091785;28;20327;-88
2021/09/23 05:00:44;;;;;;;;;;;;;;;;;;5077359;28;20376;-91
2021/09/23 05:03:14;;;;;;;;;;;;;;;;;;5091593;28;19924;-91
2021/09/23 05:05:43;;;;;;;;;;;;;;;;;;5078604;28;19931;-89
2021/09/23 05:08:11;;;;;;;;;;;;;;;;;;5073808;28;19932;-88
2021/09/23 05:10:44;;;;;;;;;;;;;;;;;;5081728;28;19924;-91
2021/09/23 05:13:12;;;;;;;;;;;;;;;;;;5093102;28;19924;-88
2021/09/23 05:15:40;;;;;;;;;;;;;;;;;;5092309;28;19928;-88
2021/09/23 05:18:10;;;;;;;;;;;;;;;;;;5084953;28;19931;-88
2021/09/23 05:20:38;;;;;;;;;;;;;;;;;;5090638;28;19935;-89
2021/09/23 05:23:07;;;;;;;;;;;;;;;;;;5089519;28;20178;-88
2021/09/23 05:25:35;;;;;;;;;;;;;;;;;;5070168;28;19931;-90
2021/09/23 05:28:04;;;;;;;;;;;;;;;;;;5086926;28;19928;-89
2021/09/23 05:30:32;;;;;;;;;;;;;;;;;;5074298;28;19928;-90
2021/09/23 05:33:01;;;;;;;;;;;;;;;;;;5068359;28;19932;-89
2021/09/23 05:35:31;;;;;;;;;;;;;;;;;;5069714;28;19924;-89
2021/09/23 05:37:59;;;;;;;;;;;;;;;;;;5062481;28;20322;-89
2021/09/23 05:40:28;;;;;;;;;;;;;;;;;;5070593;28;19947;-88
2021/09/23 05:42:56;;;;;;;;;;;;;;;;;;5071424;28;19931;-84
2021/09/23 05:45:25;;;;;;;;;;;;;;;;;;5070105;28;19928;-83
2021/09/23 05:47:54;;;;;;;;;;;;;;;;;;5085194;28;19931;-89
2021/09/23 05:50:22;;;;;;;;;;;;;;;;;;5066662;28;19924;-87
2021/09/23 05:52:53;;;;;;;;;;;;;;;;;;5083535;28;19940;-85
2021/09/23 05:55:22;;;;;;;;;;;;;;;;;;5085356;28;19924;-87
2021/09/23 05:57:51;;;;;;;;;;;;;;;;;;5081884;28;19931;-85
2021/09/23 06:00:21;;;;;;;;;;;;;;;;;;5068392;28;19947;-85
2021/09/23 06:02:49;;;;;;;;;;;;;;;;;;5072526;28;19923;-86
2021/09/23 06:05:18;;;;;;;;;;;;;;;;;;5072732;28;20305;-83
2021/09/23 06:07:46;;;;;;;;;;;;;;;;;;5066044;28;19935;-85
2021/09/23 06:10:16;;;;;;;;;;;;;;;;;;5070400;28;19931;-89
2021/09/23 06:12:44;;;;;;;;;;;;;;;;;;5083852;28;20142;-83
2021/09/23 06:15:13;;;;;;;;;;;;;;;;;;5073703;28;19924;-89
2021/09/23 06:17:45;;;;;;;;;;;;;;;;;;5091181;28;19979;-83
2021/09/23 06:20:14;;;;;;;;;;;;;;;;;;5074593;28;20337;-83
2021/09/23 06:22:42;;;;;;;;;;;;;;;;;;5086073;28;19994;-84
2021/09/23 06:25:11;;;;;;;;;;;;;;;;;;5078664;28;19931;-84
2021/09/23 06:27:40;;;;;;;;;;;;;;;;;;5080205;28;19935;-89
2021/09/23 06:30:10;;;;;;;;;;;;;;;;;;5066702;28;20290;-88
2021/09/23 06:32:39;;;;;;;;;;;;;;;;;;5089577;28;19928;-85
2021/09/23 06:35:09;;;;;;;;;;;;;;;;;;5091740;28;19935;-83
2021/09/23 06:37:45;;;;;;;;;;;;;;;;;;5088427;28;19925;-83
2021/09/23 06:40:14;;;;;;;;;;;;;;;;;;5074672;28;19924;-89
2021/09/23 06:42:44;;;;;;;;;;;;;;;;;;5075734;28;20317;-83
2021/09/23 06:45:12;;;;;;;;;;;;;;;;;;5065286;28;19931;-84
2021/09/23 06:47:40;;;;;;;;;;;;;;;;;;5075061;28;19931;-83
2021/09/23 06:50:09;;;;;;;;;;;;;;;;;;5090423;28;19932;-87
2021/09/23 06:52:37;;;;;;;;;;;;;;;;;;5097358;28;19928;-86
2021/09/23 06:55:06;;;;;;;;;;;;;;;;;;5071763;28;20199;-83
2021/09/23 06:57:37;;;;;;;;;;;;;;;;;;5076821;28;19928;-84
2021/09/23 07:00:26;;;;;;;;;;;;;;;;;;5091242;28;20421;-83
2021/09/23 07:03:21;;;;;;;;;;;;;;;;;;5065370;28;19925;-84
2021/09/23 07:06:03;;;;;;;;;;;;;;;;;;5066812;28;19924;-84
2021/09/23 07:08:32;;;;;;;;;;;;;;;;;;5067524;28;19931;-84
2021/09/23 07:11:03;;;;;;;;;;;;;;;;;;5075066;28;19932;-86
2021/09/23 07:13:32;;;;;;;;;;;;;;;;;;5078368;28;19924;-81
2021/09/23 07:16:01;;;;;;;;;;;;;;;;;;5071440;28;20307;-84
2021/09/23 07:18:30;;;;;;;;;;;;;;;;;;5076250;28;19935;-85
2021/09/23 07:20:58;;;;;;;;;;;;;;;;;;5073933;28;20314;-88
2021/09/23 07:23:27;;;;;;;;;;;;;;;;;;5077181;28;19935;-89
2021/09/23 07:25:55;;;;;;;;;;;;;;;;;;5128626;28;19919;-91
2021/09/23 07:28:25;;;;;;;;;;;;;;;;;;5085645;28;19924;-86
2021/09/23 07:30:53;;;;;;;;;;;;;;;;;;5076201;28;19931;-88
2021/09/23 07:33:23;;;;;;;;;;;;;;;;;;5077344;28;19931;-87
2021/09/23 07:35:51;;;;;;;;;;;;;;;;;;5069943;28;19935;-86
2021/09/23 07:38:20;;;;;;;;;;;;;;;;;;5089548;28;19924;-86
2021/09/23 07:40:49;;;;;;;;;;;;;;;;;;5082705;28;19924;-84
2021/09/23 07:43:17;;;;;;;;;;;;;;;;;;5076879;28;19928;-84
2021/09/23 07:45:46;;;;;;;;;;;;;;;;;;5091301;28;19924;-87
2021/09/23 07:48:14;;;;;;;;;;;;;;;;;;5072615;28;19924;-84
2021/09/23 07:50:44;;;;;;;;;;;;;;;;;;5076657;28;19924;-83
2021/09/23 07:53:13;;;;;;;;;;;;;;;;;;5077606;28;19931;-83
2021/09/23 07:55:41;;;;;;;;;;;;;;;;;;5093754;28;19924;-83
2021/09/23 07:58:09;;;;;;;;;;;;;;;;;;5069354;28;19924;-83
2021/09/23 08:00:38;;;;;;;;;;;;;;;;;;5072694;28;20452;-85
2021/09/23 08:03:06;;;;;;;;;;;;;;;;;;5071746;28;19929;-87
2021/09/23 08:05:36;;;;;;;;;;;;;;;;;;5074496;28;19932;-85
2021/09/23 08:08:08;;;;;;;;;;;;;;;;;;5081640;28;19929;-87
2021/09/23 08:10:37;;;;;;;;;;;;;;;;;;5077504;28;19924;-84
2021/09/23 08:13:08;;;;;;;;;;;;;;;;;;5074254;28;19925;-86
2021/09/23 08:15:36;;;;;;;;;;;;;;;;;;5069533;28;19931;-83
2021/09/23 08:18:19;;;;;;;;;;;;;;;;;;5069174;28;19924;-89
2021/09/23 08:21:17;;;;;;;;;;;;;;;;;;5074071;28;19924;-87
2021/09/23 08:23:47;;;;;;;;;;;;;;;;;;5075807;28;19931;-90
2021/09/23 08:26:23;;;;;;;;;;;;;;;;;;5111633;27;19924;-86
2021/09/23 08:28:51;;;;;;;;;;;;;;;;;;5074758;28;19928;-87
2021/09/23 08:31:21;;;;;;;;;;;;;;;;;;5075155;28;19935;-91
2021/09/23 08:33:54;;;;;;;;;;;;;;;;;;5075619;28;19943;-82
2021/09/23 08:36:23;;;;;;;;;;;;;;;;;;5071457;28;19931;-80
2021/09/23 08:38:52;;;;;;;;;;;;;;;;;;5070584;28;19928;-80
2021/09/23 08:41:21;;;;;;;;;;;;;;;;;;5071631;28;19939;-80
2021/09/23 08:43:51;;;;;;;;;;;;;;;;;;5071606;28;20390;-82
2021/09/23 08:46:20;;;;;;;;;;;;;;;;;;5091991;28;19931;-84
2021/09/23 08:48:48;;;;;;;;;;;;;;;;;;5073135;28;19939;-82
2021/09/23 08:51:20;;;;;;;;;;;;;;;;;;5070107;28;19931;-81
2021/09/23 08:53:48;;;;;;;;;;;;;;;;;;5093160;28;19928;-81
2021/09/23 08:56:19;;;;;;;;;;;;;;;;;;5075589;28;19924;-80
2021/09/23 08:58:49;;;;;;;;;;;;;;;;;;5094860;28;19932;-81
2021/09/23 09:01:18;;;;;;;;;;;;;;;;;;5075066;28;19924;-80
2021/09/23 09:04:11;;;;;;;;;;;;;;;;;;5073867;28;20329;-80
2021/09/23 09:07:05;;;;;;;;;;;;;;;;;;5050781;28;19924;-80
2021/09/23 09:10:03;;;;;;;;;;;;;;;;;;5085420;28;19924;-80
2021/09/23 09:12:36;;;;;;;;;;;;;;;;;;5070685;28;20248;-81
2021/09/23 09:15:04;;;;;;;;;;;;;;;;;;5066992;28;19925;-79
2021/09/23 09:17:34;;;;;;;;;;;;;;;;;;5070693;28;20405;-80
2021/09/23 09:20:03;;;;;;;;;;;;;;;;;;5083001;28;20344;-80
2021/09/23 09:22:33;;;;;;;;;;;;;;;;;;5090835;28;19939;-87
2021/09/23 09:25:05;;;;;;;;;;;;;;;;;;5072765;28;20461;-82
2021/09/23 09:27:34;;;;;;;;;;;;;;;;;;5072916;28;20318;-83
2021/09/23 09:30:07;;;;;;;;;;;;;;;;;;5070539;28;19931;-82
2021/09/23 09:32:37;;;;;;;;;;;;;;;;;;5072916;28;19924;-82
2021/09/23 09:35:06;;;;;;;;;;;;;;;;;;5078056;28;26835;-84
2021/09/23 09:37:35;;;;;;;;;;;;;;;;;;5087903;28;19935;-82
2021/09/23 09:40:04;;;;;;;;;;;;;;;;;;5072594;28;19924;-80
2021/09/23 09:42:32;;;;;;;;;;;;;;;;;;5072302;28;19998;-80
2021/09/23 09:45:03;;;;;;;;;;;;;;;;;;5070227;28;19939;-80
2021/09/23 09:47:33;;;;;;;;;;;;;;;;;;5076994;28;19939;-87
2021/09/23 09:50:10;;;;;;;;;;;;;;;;;;5081774;28;19929;-85
2021/09/23 09:52:47;;;;;;;;;;;;;;;;;;5072373;28;19924;-85
2021/09/23 09:55:15;;;;;;;;;;;;;;;;;;5071806;28;19999;-80
2021/09/23 09:57:44;;;;;;;;;;;;;;;;;;5065810;28;19925;-80
2021/09/23 10:00:13;;;;;;;;;;;;;;;;;;5062523;28;19938;-83
2021/09/23 10:02:44;;;;;;;;;;;;;;;;;;5083675;28;19936;-81
2021/09/23 10:05:19;;;;;;;;;;;;;;;;;;5069962;28;19931;-80
2021/09/23 10:07:48;;;;;;;;;;;;;;;;;;5072118;28;20408;-81
2021/09/23 10:10:17;;;;;;;;;;;;;;;;;;5095933;28;19931;-80
2021/09/23 10:12:47;;;;;;;;;;;;;;;;;;5072435;28;19932;-85
2021/09/23 10:15:18;;;;;;;;;;;;;;;;;;5073326;28;20529;-86
2021/09/23 10:17:48;;;;;;;;;;;;;;;;;;5092156;28;19924;-80
2021/09/23 10:20:17;;;;;;;;;;;;;;;;;;5070066;28;19925;-84
2021/09/23 10:22:46;;;;;;;;;;;;;;;;;;5076592;28;19924;-83
2021/09/23 10:25:15;;;;;;;;;;;;;;;;;;5096940;28;20310;-83
2021/09/23 10:27:59;;;;;;;;;;;;;;;;;;5096168;28;20416;-84
2021/09/23 10:30:31;;;;;;;;;;;;;;;;;;5074548;28;19931;-84
2021/09/23 10:33:01;;;;;;;;;;;;;;;;;;5092607;28;19924;-83
2021/09/23 10:35:31;;;;;;;;;;;;;;;;;;5092494;28;19924;-85
2021/09/23 10:38:02;;;;;;;;;;;;;;;;;;5078707;28;20394;-82
2021/09/23 10:40:31;;;;;;;;;;;;;;;;;;5075306;28;20302;-82
2021/09/23 10:43:01;;;;;;;;;;;;;;;;;;5095154;28;19924;-82
2021/09/23 10:45:30;;;;;;;;;;;;;;;;;;5065099;28;19925;-81
2021/09/23 10:47:59;;;;;;;;;;;;;;;;;;5084823;28;19924;-83
2021/09/23 10:50:30;;;;;;;;;;;;;;;;;;5082165;28;19925;-80
2021/09/23 10:53:06;;;;;;;;;;;;;;;;;;5076895;28;19928;-80
2021/09/23 10:55:38;;;;;;;;;;;;;;;;;;5095747;28;19924;-81
2021/09/23 10:58:10;;;;;;;;;;;;;;;;;;5083296;28;19928;-80
2021/09/23 11:00:38;;;;;;;;;;;;;;;;;;5079258;28;19932;-79
2021/09/23 11:03:08;;;;;;;;;;;;;;;;;;5083702;28;19935;-81
2021/09/23 11:05:39;;;;;;;;;;;;;;;;;;5081826;28;19932;-80
2021/09/23 11:08:10;;;;;;;;;;;;;;;;;;5090039;28;19931;-78
2021/09/23 11:10:39;;;;;;;;;;;;;;;;;;5092815;28;19925;-82
2021/09/23 11:13:09;;;;;;;;;;;;;;;;;;5083765;28;20380;-79
2021/09/23 11:15:39;;;;;;;;;;;;;;;;;;5086453;28;19924;-79
2021/09/23 11:18:09;;;;;;;;;;;;;;;;;;5083327;28;20448;-81
2021/09/23 11:20:44;;;;;;;;;;;;;;;;;;5076586;28;19929;-80
2021/09/23 11:23:13;;;;;;;;;;;;;;;;;;5081143;28;19924;-80
2021/09/23 11:25:48;;;;;;;;;;;;;;;;;;5096584;28;19924;-79
2021/09/23 11:28:21;;;;;;;;;;;;;;;;;;5070370;28;19924;-80
2021/09/23 11:30:52;;;;;;;;;;;;;;;;;;5080596;28;19925;-80
2021/09/23 11:33:22;;;;;;;;;;;;;;;;;;5083143;28;19932;-81
2021/09/23 11:35:53;;;;;;;;;;;;;;;;;;5079910;28;19931;-80
2021/09/23 11:38:24;;;;;;;;;;;;;;;;;;5074489;28;20302;-83
2021/09/23 11:40:58;;;;;;;;;;;;;;;;;;5076617;28;19954;-80
2021/09/23 11:43:30;;;;;;;;;;;;;;;;;;5075732;28;19923;-80
2021/09/23 11:46:01;;;;;;;;;;;;;;;;;;5083963;28;19924;-81
2021/09/23 11:48:34;;;;;;;;;;;;;;;;;;5077673;28;19932;-80
2021/09/23 11:51:08;;;;;;;;;;;;;;;;;;5071995;28;19930;-79
2021/09/23 11:53:38;;;;;;;;;;;;;;;;;;5074337;28;19924;-81
2021/09/23 11:56:09;;;;;;;;;;;;;;;;;;5079847;28;19924;-81
2021/09/23 11:58:42;;;;;;;;;;;;;;;;;;5067422;28;19924;-83
2021/09/23 12:01:11;;;;;;;;;;;;;;;;;;5077186;28;19943;-83
2021/09/23 12:03:42;;;;;;;;;;;;;;;;;;5077664;28;19924;-83
2021/09/23 12:06:13;;;;;;;;;;;;;;;;;;5080046;28;19924;-83
2021/09/23 12:08:46;;;;;;;;;;;;;;;;;;5097142;28;20301;-83
2021/09/23 12:11:15;;;;;;;;;;;;;;;;;;5090646;28;20193;-82
2021/09/23 12:13:50;;;;;;;;;;;;;;;;;;5096159;28;19926;-83
2021/09/23 12:16:25;;;;;;;;;;;;;;;;;;5076150;28;19924;-83
2021/09/23 12:18:59;;;;;;;;;;;;;;;;;;5077921;28;20301;-83
2021/09/23 12:21:33;;;;;;;;;;;;;;;;;;5070884;28;19931;-83
2021/09/23 12:24:05;;;;;;;;;;;;;;;;;;5091723;28;19932;-83
2021/09/23 12:26:40;;;;;;;;;;;;;;;;;;5071014;28;19931;-83
2021/09/23 12:29:10;;;;;;;;;;;;;;;;;;5074777;28;19939;-83
2021/09/23 12:31:44;;;;;;;;;;;;;;;;;;5074398;28;19925;-84
2021/09/23 12:34:19;;;;;;;;;;;;;;;;;;5074830;28;19925;-83
2021/09/23 12:36:51;;;;;;;;;;;;;;;;;;5072512;28;20440;-82
2021/09/23 12:39:20;;;;;;;;;;;;;;;;;;5094638;28;19924;-83
2021/09/23 12:42:01;;;;;;;;;;;;;;;;;;5080981;28;19925;-83
2021/09/23 12:44:31;;;;;;;;;;;;;;;;;;5094049;28;20290;-82
2021/09/23 12:47:04;;;;;;;;;;;;;;;;;;5094727;28;19931;-82
2021/09/23 12:49:33;;;;;;;;;;;;;;;;;;5075747;28;20297;-83
2021/09/23 12:52:12;;;;;;;;;;;;;;;;;;5076235;28;19947;-83
2021/09/23 12:54:49;;;;;;;;;;;;;;;;;;5076736;28;20529;-83
2021/09/23 12:57:35;;;;;;;;;;;;;;;;;;5072299;28;19929;-83
2021/09/23 13:00:08;;;;;;;;;;;;;;;;;;5093058;28;20320;-83
2021/09/23 13:02:48;;;;;;;;;;;;;;;;;;5107363;27;19935;-83
2021/09/23 13:05:18;;;;;;;;;;;;;;;;;;5090663;28;19924;-83
2021/09/23 13:07:48;;;;;;;;;;;;;;;;;;5093128;28;19931;-83
2021/09/23 13:10:20;;;;;;;;;;;;;;;;;;5077663;28;19924;-80
2021/09/23 13:12:59;;;;;;;;;;;;;;;;;;5073924;28;20432;-82
2021/09/23 13:15:30;;;;;;;;;;;;;;;;;;5068468;28;19925;-83
2021/09/23 13:18:02;;;;;;;;;;;;;;;;;;5092602;28;20317;-83
2021/09/23 13:20:31;;;;;;;;;;;;;;;;;;5085935;28;19951;-83
2021/09/23 13:23:20;;;;;;;;;;;;;;;;;;5094231;28;19924;-82
2021/09/23 13:25:50;;;;;;;;;;;;;;;;;;5081210;28;19932;-82
2021/09/23 13:28:19;;;;;;;;;;;;;;;;;;5077890;28;20309;-83
2021/09/23 13:30:48;;;;;;;;;;;;;;;;;;5083240;28;19932;-83
2021/09/23 13:33:17;;;;;;;;;;;;;;;;;;5083488;28;20120;-83
2021/09/23 13:35:45;;;;;;;;;;;;;;;;;;5095396;28;19931;-82
2021/09/23 13:38:14;;;;;;;;;;;;;;;;;;5073975;28;19925;-83
2021/09/23 13:40:44;;;;;;;;;;;;;;;;;;5077048;28;19933;-83
2021/09/23 13:43:13;;;;;;;;;;;;;;;;;;5077358;28;19924;-82
2021/09/23 13:45:58;;;;;;;;;;;;;;;;;;5072603;28;20305;-83
2021/09/23 13:48:29;;;;;;;;;;;;;;;;;;5090461;28;19928;-83
2021/09/23 13:50:58;;;;;;;;;;;;;;;;;;5079585;28;19923;-82
2021/09/23 13:53:29;;;;;;;;;;;;;;;;;;5077755;28;20313;-82
2021/09/23 13:56:00;;;;;;;;;;;;;;;;;;5094003;28;19928;-83
2021/09/23 13:58:29;;;;;;;;;;;;;;;;;;5077275;28;19924;-83
2021/09/23 14:00:59;;;;;;;;;;;;;;;;;;5069939;28;20394;-83
2021/09/23 14:03:31;;;;;;;;;;;;;;;;;;5076457;28;19939;-82
2021/09/23 14:06:03;;;;;;;;;;;;;;;;;;5075942;28;20424;-83
2021/09/23 14:08:34;;;;;;;;;;;;;;;;;;5070085;28;20448;-83
2021/09/23 14:11:18;;;;;;;;;;;;;;;;;;5070516;28;19928;-82
2021/09/23 14:14:05;;;;;;;;;;;;;;;;;;5092862;28;20309;-82
2021/09/23 14:16:33;;;;;;;;;;;;;;;;;;5076737;28;19931;-82
2021/09/23 14:19:03;;;;;;;;;;;;;;;;;;5076139;28;20386;-83
2021/09/23 14:21:31;;;;;;;;;;;;;;;;;;5075958;28;20401;-83
2021/09/23 14:24:01;;;;;;;;;;;;;;;;;;5076659;28;19925;-83
2021/09/23 14:26:33;;;;;;;;;;;;;;;;;;5075799;28;19931;-83
2021/09/23 14:29:04;;;;;;;;;;;;;;;;;;5075429;28;19931;-83
2021/09/23 14:31:42;;;;;;;;;;;;;;;;;;5080535;28;19924;-82
2021/09/23 14:34:11;;;;;;;;;;;;;;;;;;5083751;28;19924;-82
2021/09/23 14:36:39;;;;;;;;;;;;;;;;;;5102267;28;19930;-83
2021/09/23 14:39:07;;;;;;;;;;;;;;;;;;5100776;28;19924;-83
2021/09/23 14:41:37;;;;;;;;;;;;;;;;;;5075338;28;19932;-81
2021/09/23 14:44:05;;;;;;;;;;;;;;;;;;5095700;28;19924;-83
2021/09/23 14:46:34;;;;;;;;;;;;;;;;;;5079697;28;20301;-83
2021/09/23 14:49:03;;;;;;;;;;;;;;;;;;5078363;28;19929;-83
2021/09/23 14:51:31;;;;;;;;;;;;;;;;;;5080110;28;19939;-83
2021/09/23 14:54:00;;;;;;;;;;;;;;;;;;5080424;28;19931;-83
2021/09/23 14:56:28;;;;;;;;;;;;;;;;;;5086701;28;19924;-82
2021/09/23 14:58:58;;;;;;;;;;;;;;;;;;5075424;28;19948;-82
2021/09/23 15:01:26;;;;;;;;;;;;;;;;;;5078493;28;19924;-83
2021/09/23 15:03:55;;;;;;;;;;;;;;;;;;5083164;28;19924;-84
2021/09/23 15:06:24;;;;;;;;;;;;;;;;;;5098211;28;19935;-83
2021/09/23 15:08:53;;;;;;;;;;;;;;;;;;5079568;28;19924;-83
2021/09/23 15:11:21;;;;;;;;;;;;;;;;;;5073992;28;19932;-82
2021/09/23 15:13:49;;;;;;;;;;;;;;;;;;5076987;28;19925;-83
2021/09/23 15:16:19;;;;;;;;;;;;;;;;;;5071324;28;19933;-83
2021/09/23 15:18:48;;;;;;;;;;;;;;;;;;5075849;28;19928;-83
2021/09/23 15:21:16;;;;;;;;;;;;;;;;;;5088805;28;20326;-83
2021/09/23 15:23:44;;;;;;;;;;;;;;;;;;5079886;28;19931;-83
2021/09/23 15:26:13;;;;;;;;;;;;;;;;;;5091352;28;19925;-83
2021/09/23 15:28:41;;;;;;;;;;;;;;;;;;5086850;28;19924;-82
2021/09/23 15:31:10;;;;;;;;;;;;;;;;;;5075511;28;19925;-83
2021/09/23 15:33:40;;;;;;;;;;;;;;;;;;5073923;28;20349;-84
2021/09/23 15:36:10;;;;;;;;;;;;;;;;;;5090754;28;19924;-83
2021/09/23 15:38:38;;;;;;;;;;;;;;;;;;5091721;28;19924;-81
2021/09/23 15:41:08;;;;;;;;;;;;;;;;;;5078078;28;19928;-82
2021/09/23 15:43:36;;;;;;;;;;;;;;;;;;5074391;28;19924;-81
2021/09/23 15:46:29;;;;;;;;;;;;;;;;;;5078178;28;19924;-82
2021/09/23 15:49:15;;;;;;;;;;;;;;;;;;5076968;28;19935;-82
2021/09/23 15:51:43;;;;;;;;;;;;;;;;;;5073282;28;20122;-83
2021/09/23 15:54:12;;;;;;;;;;;;;;;;;;5068440;28;19924;-81
2021/09/23 15:56:40;;;;;;;;;;;;;;;;;;5093879;28;19931;-81
2021/09/23 16:02:28;;;;;;;;;;;;;;;;;;5106250;28;19924;-82
2021/09/23 16:04:58;;;;;;;;;;;;;;;;;;5092194;28;20405;-82
2021/09/23 16:07:27;;;;;;;;;;;;;;;;;;5088299;28;19932;-81
2021/09/23 16:09:55;;;;;;;;;;;;;;;;;;5077479;28;20317;-82
2021/09/23 16:12:23;;;;;;;;;;;;;;;;;;5073217;28;19924;-81
2021/09/23 16:14:51;;;;;;;;;;;;;;;;;;5096503;28;19941;-81
2021/09/23 16:17:20;;;;;;;;;;;;;;;;;;5060880;28;19946;-82
2021/09/23 16:19:48;;;;;;;;;;;;;;;;;;5071813;28;19935;-81
2021/09/23 16:22:18;;;;;;;;;;;;;;;;;;5097433;28;19924;-82
2021/09/23 16:24:47;;;;;;;;;;;;;;;;;;5074238;28;20041;-82
2021/09/23 16:27:16;;;;;;;;;;;;;;;;;;5078972;28;19925;-82
2021/09/23 16:29:44;;;;;;;;;;;;;;;;;;5093927;28;19935;-84
2021/09/23 16:32:13;;;;;;;;;;;;;;;;;;5089592;28;19928;-86
2021/09/23 16:34:41;;;;;;;;;;;;;;;;;;5070672;28;19924;-83
2021/09/23 16:37:10;;;;;;;;;;;;;;;;;;5094323;28;19928;-82
2021/09/23 16:39:40;;;;;;;;;;;;;;;;;;5073686;28;19935;-81
2021/09/23 16:42:08;;;;;;;;;;;;;;;;;;5077533;28;19931;-82
2021/09/23 16:44:36;;;;;;;;;;;;;;;;;;5075904;28;19924;-83
2021/09/23 16:47:05;;;;;;;;;;;;;;;;;;5091907;28;20310;-82
2021/09/23 16:49:33;;;;;;;;;;;;;;;;;;5092544;28;19935;-84
2021/09/23 16:52:01;;;;;;;;;;;;;;;;;;5080547;28;20290;-85
2021/09/23 16:54:30;;;;;;;;;;;;;;;;;;5067138;28;19977;-84
2021/09/23 16:56:59;;;;;;;;;;;;;;;;;;5075749;28;19931;-82
2021/09/23 16:59:29;;;;;;;;;;;;;;;;;;5102360;28;20491;-85
2021/09/23 17:01:57;;;;;;;;;;;;;;;;;;5092669;28;19924;-82
2021/09/23 17:04:26;;;;;;;;;;;;;;;;;;5064903;28;19925;-84
2021/09/23 17:06:54;;;;;;;;;;;;;;;;;;5075634;28;19928;-82
2021/09/23 17:09:23;;;;;;;;;;;;;;;;;;5067718;28;19924;-84
2021/09/23 17:11:51;;;;;;;;;;;;;;;;;;5070620;28;19932;-82
2021/09/23 17:14:21;;;;;;;;;;;;;;;;;;5072359;28;19935;-82